Time;durP1;ratioP1;P1;durP2;ratioP2;P2;SDS_P1;SDS_P2;PMS_P1;PMS_P2;Temp;Humidity;BMP_temperature;BMP_pressure;BME280_temperature;BME280_humidity;BME280_pressure;Samples;Min_cycle;Max_cycle;Signal;HPM_P1;HPM_P2
2022/12/06 00:01:22;;;;;;;25.00;5.95;;;;;;;;;;4978191;28;20040;-66
2022/12/06 00:03:52;;;;;;;21.40;6.82;;;;;;;;;;4983338;28;20387;-66
2022/12/06 00:06:19;;;;;;;32.33;9.55;;;;;;;;;;4978718;28;20237;-65
2022/12/06 00:08:46;;;;;;;26.30;7.90;;;;;;;;;;4984028;28;20452;-65
2022/12/06 00:11:14;;;;;;;22.02;6.28;;;;;;;;;;4980462;28;20033;-66
2022/12/06 00:13:43;;;;;;;21.98;6.10;;;;;;;;;;4981762;28;20896;-66
2022/12/06 00:16:11;;;;;;;20.67;5.97;;;;;;;;;;4979635;28;20565;-66
2022/12/06 00:18:38;;;;;;;22.35;6.50;;;;;;;;;;4981618;28;20664;-65
2022/12/06 00:21:26;;;;;;;18.23;6.55;;;;;;;;;;4978093;28;20546;-66
2022/12/06 00:23:52;;;;;;;;;;;;;;;;;;4982160;28;20030;-67
2022/12/06 00:26:18;;;;;;;22.42;7.50;;;;;;;;;;4979734;28;19913;-67
2022/12/06 00:28:44;;;;;;;23.45;7.82;;;;;;;;;;4980661;28;20044;-66
2022/12/06 00:31:17;;;;;;;25.58;7.93;;;;;;;;;;4978515;28;20030;-67
2022/12/06 00:33:44;;;;;;;28.60;8.05;;;;;;;;;;4981537;28;20034;-66
2022/12/06 00:36:14;;;;;;;22.05;7.13;;;;;;;;;;4982238;28;20475;-67
2022/12/06 00:38:40;;;;;;;22.85;7.22;;;;;;;;;;4983393;28;20032;-67
2022/12/06 00:41:07;;;;;;;19.35;6.45;;;;;;;;;;4978351;28;20610;-64
2022/12/06 00:43:35;;;;;;;23.67;7.10;;;;;;;;;;4983490;28;20041;-67
2022/12/06 00:46:01;;;;;;;17.40;6.72;;;;;;;;;;4980352;28;20027;-67
2022/12/06 00:48:27;;;;;;;;;;;;;;;;;;4984356;28;20422;-65
2022/12/06 00:50:53;;;;;;;20.40;6.72;;;;;;;;;;4977645;28;20264;-67
2022/12/06 00:53:19;;;;;;;;;;;;;;;;;;4984878;28;20026;-65
2022/12/06 00:55:46;;;;;;;20.95;5.70;;;;;;;;;;4980635;28;20402;-67
2022/12/06 00:58:12;;;;;;;;;;;;;;;;;;4978937;28;20419;-65
2022/12/06 01:00:38;;;;;;;17.42;5.13;;;;;;;;;;4979668;28;19917;-65
2022/12/06 01:03:05;;;;;;;18.27;5.35;;;;;;;;;;4977748;28;20188;-65
2022/12/06 01:05:31;;;;;;;16.67;4.90;;;;;;;;;;4980357;28;20089;-65
2022/12/06 01:07:57;;;;;;;19.67;4.47;;;;;;;;;;4977954;28;20083;-65
2022/12/06 01:10:24;;;;;;;18.00;4.10;;;;;;;;;;4979907;28;20879;-65
2022/12/06 01:12:50;;;;;;;;;;;;;;;;;;4982373;28;20878;-65
2022/12/06 01:15:16;;;;;;;17.40;4.63;;;;;;;;;;4979584;28;19917;-65
2022/12/06 01:17:42;;;;;;;13.85;4.43;;;;;;;;;;4977664;28;20033;-65
2022/12/06 01:20:09;;;;;;;18.52;4.75;;;;;;;;;;4974484;28;20164;-65
2022/12/06 01:22:35;;;;;;;;;;;;;;;;;;4978581;28;20045;-65
2022/12/06 01:25:01;;;;;;;19.45;4.63;;;;;;;;;;4974879;28;19917;-65
2022/12/06 01:27:27;;;;;;;19.27;4.57;;;;;;;;;;4974288;28;20485;-65
2022/12/06 01:29:53;;;;;;;15.43;3.97;;;;;;;;;;4973955;28;20509;-65
2022/12/06 01:32:22;;;;;;;17.40;4.40;;;;;;;;;;4980498;28;20113;-67
2022/12/06 01:34:51;;;;;;;19.60;3.90;;;;;;;;;;4977127;28;20352;-66
2022/12/06 01:37:17;;;;;;;15.40;3.83;;;;;;;;;;4973125;28;20242;-67
2022/12/06 01:39:44;;;;;;;15.23;4.03;;;;;;;;;;4975710;28;20475;-66
2022/12/06 01:42:11;;;;;;;16.63;3.70;;;;;;;;;;4972918;28;20063;-66
2022/12/06 01:44:42;;;;;;;17.08;3.88;;;;;;;;;;4977149;28;20435;-66
2022/12/06 01:47:14;;;;;;;18.77;4.30;;;;;;;;;;4973561;28;20128;-66
2022/12/06 01:49:41;;;;;;;17.10;4.75;;;;;;;;;;4973611;28;20072;-67
2022/12/06 01:52:10;;;;;;;20.25;4.63;;;;;;;;;;4971077;28;20026;-66
2022/12/06 01:54:36;;;;;;;12.93;4.15;;;;;;;;;;4978206;28;20148;-65
2022/12/06 01:57:04;;;;;;;17.88;4.38;;;;;;;;;;4972777;28;20371;-65
2022/12/06 01:59:30;;;;;;;15.77;4.82;;;;;;;;;;4992799;28;20036;-66
2022/12/06 02:01:56;;;;;;;;;;;;;;;;;;4978140;28;20144;-65
2022/12/06 02:04:26;;;;;;;15.05;4.15;;;;;;;;;;4978935;28;20044;-67
2022/12/06 02:06:54;;;;;;;18.52;4.20;;;;;;;;;;4976797;28;20111;-65
2022/12/06 02:09:20;;;;;;;15.85;3.97;;;;;;;;;;4974273;28;20030;-65
2022/12/06 02:11:47;;;;;;;11.80;3.25;;;;;;;;;;4972864;28;20112;-65
2022/12/06 02:14:14;;;;;;;15.00;4.03;;;;;;;;;;4969768;28;20682;-64
2022/12/06 02:16:46;;;;;;;16.85;4.18;;;;;;;;;;4975928;28;20084;-65
2022/12/06 02:19:12;;;;;;;17.42;4.13;;;;;;;;;;4969271;28;23337;-64
2022/12/06 02:21:54;;;;;;;16.85;4.22;;;;;;;;;;4972612;28;20030;-64
2022/12/06 02:24:31;;;;;;;16.20;4.15;;;;;;;;;;4973152;28;20729;-64
2022/12/06 02:27:16;;;;;;;14.15;4.40;;;;;;;;;;4972890;28;20288;-64
2022/12/06 02:29:58;;;;;;;15.25;4.30;;;;;;;;;;4972446;28;20034;-67
2022/12/06 02:32:34;;;;;;;15.20;4.00;;;;;;;;;;4972014;28;20374;-64
2022/12/06 02:35:09;;;;;;;14.32;4.88;;;;;;;;;;4971253;28;20045;-64
2022/12/06 02:37:47;;;;;;;19.67;5.45;;;;;;;;;;4975498;28;20489;-66
2022/12/06 02:40:16;;;;;;;21.92;5.13;;;;;;;;;;4966453;28;20064;-66
2022/12/06 02:42:49;;;;;;;19.02;5.13;;;;;;;;;;4971379;28;20031;-66
2022/12/06 02:45:18;;;;;;;16.35;4.63;;;;;;;;;;4969053;28;20693;-67
2022/12/06 02:47:45;;;;;;;21.55;5.00;;;;;;;;;;4973059;28;20513;-66
2022/12/06 02:50:16;;;;;;;18.75;4.22;;;;;;;;;;4959727;28;20042;-66
2022/12/06 02:52:43;;;;;;;18.63;3.88;;;;;;;;;;4976953;28;20263;-66
2022/12/06 02:55:10;;;;;;;17.13;3.85;;;;;;;;;;4976712;28;20054;-67
2022/12/06 02:57:49;;;;;;;15.15;3.90;;;;;;;;;;4981907;28;20554;-66
2022/12/06 03:00:25;;;;;;;16.85;4.10;;;;;;;;;;4976833;28;20119;-66
2022/12/06 03:02:54;;;;;;;18.13;4.07;;;;;;;;;;4980735;28;20030;-67
2022/12/06 03:05:24;;;;;;;21.45;4.28;;;;;;;;;;4980110;28;20467;-66
2022/12/06 03:07:51;;;;;;;18.67;3.95;;;;;;;;;;4994455;28;20022;-66
2022/12/06 03:10:17;;;;;;;19.05;4.30;;;;;;;;;;4975079;28;20032;-67
2022/12/06 03:12:50;;;;;;;24.67;4.03;;;;;;;;;;4978272;28;20073;-67
2022/12/06 03:15:16;;;;;;;16.30;3.95;;;;;;;;;;4978654;28;20032;-66
2022/12/06 03:17:42;;;;;;;18.23;4.25;;;;;;;;;;4978918;28;20026;-64
2022/12/06 03:20:15;;;;;;;20.00;4.72;;;;;;;;;;4974260;28;20364;-64
2022/12/06 03:22:44;;;;;;;19.15;4.45;;;;;;;;;;4979770;28;20034;-65
2022/12/06 03:25:10;;;;;;;17.95;4.65;;;;;;;;;;4976514;28;20402;-65
2022/12/06 03:27:37;;;;;;;12.95;3.38;;;;;;;;;;4980402;28;20030;-65
2022/12/06 03:30:07;;;;;;;14.25;3.67;;;;;;;;;;4977330;28;20036;-65
2022/12/06 03:32:34;;;;;;;13.68;3.38;;;;;;;;;;4979701;28;20256;-65
2022/12/06 03:35:03;;;;;;;20.80;4.28;;;;;;;;;;4973610;28;20088;-65
2022/12/06 03:37:31;;;;;;;16.00;3.63;;;;;;;;;;4977108;28;20041;-65
2022/12/06 03:40:03;;;;;;;14.02;3.42;;;;;;;;;;4975558;28;20470;-65
2022/12/06 03:42:30;;;;;;;20.73;4.03;;;;;;;;;;4990014;28;20376;-65
2022/12/06 03:44:57;;;;;;;15.40;3.28;;;;;;;;;;4975144;28;20092;-65
2022/12/06 03:47:26;;;;;;;15.48;3.78;;;;;;;;;;4979217;28;20039;-65
2022/12/06 03:49:55;;;;;;;20.10;4.03;;;;;;;;;;4979966;28;20024;-65
2022/12/06 03:52:22;;;;;;;16.77;3.40;;;;;;;;;;4981224;28;20038;-64
2022/12/06 03:54:48;;;;;;;19.27;3.63;;;;;;;;;;4978255;28;20529;-64
2022/12/06 03:57:14;;;;;;;16.45;3.75;;;;;;;;;;4976789;28;20038;-67
2022/12/06 03:59:40;;;;;;;21.73;3.65;;;;;;;;;;4991129;28;20054;-66
2022/12/06 04:02:07;;;;;;;18.92;3.35;;;;;;;;;;4977392;28;20313;-66
2022/12/06 04:04:33;;;;;;;18.77;3.10;;;;;;;;;;4980259;28;20091;-65
2022/12/06 04:06:59;;;;;;;21.13;3.72;;;;;;;;;;4978198;28;20034;-66
2022/12/06 04:14:54;;;;;;;18.92;3.58;;;;;;;;;;4975461;28;20115;-67
2022/12/06 04:20:25;;;;;;;18.02;2.83;;;;;;;;;;4879124;29;20516;-65
2022/12/06 04:23:04;;;;;;;16.77;3.58;;;;;;;;;;4878960;29;20203;-65
2022/12/06 04:25:33;;;;;;;16.00;3.40;;;;;;;;;;4877287;29;20098;-65
2022/12/06 04:38:59;;;;;;;19.35;3.60;;;;;;;;;;4876519;29;20997;-65
2022/12/06 04:44:10;;;;;;;16.55;3.10;;;;;;;;;;4874448;29;20168;-65
2022/12/06 04:46:36;;;;;;;15.00;2.95;;;;;;;;;;4878482;29;20056;-65
2022/12/06 04:49:02;;;;;;;;;;;;;;;;;;4875513;29;20032;-65
2022/12/06 04:51:28;;;;;;;15.38;2.78;;;;;;;;;;4936012;28;20382;-65
2022/12/06 04:53:54;;;;;;;14.57;2.60;;;;;;;;;;4973259;28;20062;-65
2022/12/06 04:56:21;;;;;;;15.68;2.60;;;;;;;;;;4977687;28;20030;-65
2022/12/06 04:58:47;;;;;;;12.80;2.75;;;;;;;;;;4977778;28;20485;-65
2022/12/06 05:01:13;;;;;;;11.30;2.00;;;;;;;;;;4976637;28;20798;-65
2022/12/06 05:03:39;;;;;;;13.68;2.58;;;;;;;;;;4972524;28;20145;-65
2022/12/06 05:06:05;;;;;;;14.23;2.60;;;;;;;;;;4975969;28;20273;-65
2022/12/06 05:08:32;;;;;;;15.73;2.97;;;;;;;;;;4979870;28;20060;-65
2022/12/06 05:10:57;;;;;;;;;;;;;;;;;;4976648;28;20036;-65
2022/12/06 05:13:24;;;;;;;16.60;3.00;;;;;;;;;;4978093;28;20674;-65
2022/12/06 05:15:50;;;;;;;14.35;2.88;;;;;;;;;;4977710;28;20037;-65
2022/12/06 05:18:17;;;;;;;12.77;2.47;;;;;;;;;;4973437;28;20029;-65
2022/12/06 05:20:43;;;;;;;15.98;2.80;;;;;;;;;;4978125;28;20511;-65
2022/12/06 05:23:09;;;;;;;23.75;3.15;;;;;;;;;;4977105;28;20050;-65
2022/12/06 05:25:35;;;;;;;12.90;2.20;;;;;;;;;;4978531;28;20061;-66
2022/12/06 05:28:01;;;;;;;12.57;2.47;;;;;;;;;;4975201;28;20029;-66
2022/12/06 05:30:27;;;;;;;16.25;2.78;;;;;;;;;;4979536;28;20030;-67
2022/12/06 05:32:53;;;;;;;11.15;2.22;;;;;;;;;;4976796;28;20044;-68
2022/12/06 05:35:19;;;;;;;18.50;3.10;;;;;;;;;;4974175;28;20321;-65
2022/12/06 05:37:46;;;;;;;14.20;3.30;;;;;;;;;;4977504;28;20090;-64
2022/12/06 05:40:12;;;;;;;12.82;3.28;;;;;;;;;;4973290;28;20029;-66
2022/12/06 05:42:41;;;;;;;15.52;3.58;;;;;;;;;;4979967;28;20434;-64
2022/12/06 05:45:08;;;;;;;17.35;3.92;;;;;;;;;;4971478;28;20034;-66
2022/12/06 05:47:34;;;;;;;12.65;2.95;;;;;;;;;;4978702;28;20266;-66
2022/12/06 05:50:00;;;;;;;14.30;3.53;;;;;;;;;;4973030;28;20041;-65
2022/12/06 05:52:26;;;;;;;15.05;3.80;;;;;;;;;;4992127;28;20022;-65
2022/12/06 05:54:53;;;;;;;16.42;3.55;;;;;;;;;;4976809;28;20049;-65
2022/12/06 05:57:19;;;;;;;17.05;3.35;;;;;;;;;;4977806;28;20041;-65
2022/12/06 05:59:45;;;;;;;14.13;3.55;;;;;;;;;;4977920;28;20041;-65
2022/12/06 06:02:11;;;;;;;13.90;3.28;;;;;;;;;;4977724;28;20392;-65
2022/12/06 06:04:37;;;;;;;15.88;3.33;;;;;;;;;;4979622;28;20033;-67
2022/12/06 06:07:03;;;;;;;13.02;3.20;;;;;;;;;;4976995;28;20038;-65
2022/12/06 06:09:29;;;;;;;12.88;2.90;;;;;;;;;;4977072;28;20022;-65
2022/12/06 06:11:55;;;;;;;14.93;2.85;;;;;;;;;;4972764;28;20119;-65
2022/12/06 06:14:21;;;;;;;;;;;;;;;;;;4979902;28;20411;-65
2022/12/06 06:16:48;;;;;;;14.57;3.05;;;;;;;;;;4978040;28;20353;-65
2022/12/06 06:19:14;;;;;;;17.50;3.47;;;;;;;;;;4974589;28;20211;-65
2022/12/06 06:21:40;;;;;;;14.18;2.60;;;;;;;;;;4976722;28;20465;-65
2022/12/06 06:24:06;;;;;;;16.10;3.00;;;;;;;;;;4972975;28;20572;-65
2022/12/06 06:26:32;;;;;;;13.88;3.28;;;;;;;;;;4979149;28;20053;-65
2022/12/06 06:28:59;;;;;;;13.70;3.17;;;;;;;;;;4976924;28;20022;-65
2022/12/06 06:31:25;;;;;;;11.93;3.60;;;;;;;;;;4980253;28;20061;-65
2022/12/06 06:33:51;;;;;;;15.57;3.08;;;;;;;;;;4977179;28;20033;-64
2022/12/06 06:36:17;;;;;;;18.35;3.22;;;;;;;;;;4977100;28;20038;-65
2022/12/06 06:38:43;;;;;;;19.67;3.50;;;;;;;;;;4981982;28;20038;-65
2022/12/06 06:41:11;;;;;;;14.20;3.33;;;;;;;;;;4978249;28;20138;-65
2022/12/06 06:43:37;;;;;;;13.20;3.38;;;;;;;;;;4981835;28;20030;-65
2022/12/06 06:46:05;;;;;;;13.27;3.35;;;;;;;;;;4977471;28;20058;-65
2022/12/06 06:48:33;;;;;;;15.57;3.60;;;;;;;;;;4976661;28;20034;-66
2022/12/06 06:51:03;;;;;;;15.65;3.78;;;;;;;;;;4977780;28;20504;-65
2022/12/06 06:53:30;;;;;;;14.00;3.50;;;;;;;;;;4977850;28;20433;-65
2022/12/06 06:55:56;;;;;;;27.52;5.25;;;;;;;;;;4977268;28;20434;-65
2022/12/06 06:58:22;;;;;;;21.70;3.58;;;;;;;;;;4981503;28;20046;-65
2022/12/06 07:00:48;;;;;;;;;;;;;;;;;;4979142;28;20036;-65
2022/12/06 07:03:15;;;;;;;20.92;3.97;;;;;;;;;;4976847;28;19921;-65
2022/12/06 07:05:42;;;;;;;15.63;3.60;;;;;;;;;;4979017;28;20088;-65
2022/12/06 07:08:09;;;;;;;19.25;4.60;;;;;;;;;;4976412;28;20554;-65
2022/12/06 07:10:35;;;;;;;24.75;4.68;;;;;;;;;;4980122;28;20038;-65
2022/12/06 07:13:01;;;;;;;14.75;3.70;;;;;;;;;;4975042;28;20489;-65
2022/12/06 07:15:27;;;;;;;17.42;3.70;;;;;;;;;;4979960;28;20037;-65
2022/12/06 07:17:53;;;;;;;13.68;3.47;;;;;;;;;;4977881;28;20018;-65
2022/12/06 07:20:20;;;;;;;14.63;3.38;;;;;;;;;;4979305;28;20034;-65
2022/12/06 07:22:45;;;;;;;;;;;;;;;;;;4981973;28;20034;-65
2022/12/06 07:25:12;;;;;;;15.48;3.33;;;;;;;;;;4976181;28;20374;-65
2022/12/06 07:27:38;;;;;;;16.55;3.10;;;;;;;;;;4981837;28;20033;-65
2022/12/06 07:30:05;;;;;;;13.55;2.78;;;;;;;;;;4976116;28;20495;-65
2022/12/06 07:32:35;;;;;;;16.98;3.50;;;;;;;;;;4979637;28;20041;-65
2022/12/06 07:35:01;;;;;;;17.00;3.42;;;;;;;;;;4972674;28;20022;-65
2022/12/06 07:37:28;;;;;;;14.48;2.67;;;;;;;;;;4980085;28;20034;-65
2022/12/06 07:39:54;;;;;;;18.35;3.15;;;;;;;;;;4973256;28;20740;-65
2022/12/06 07:45:07;;;;;;;14.73;2.88;;;;;;;;;;4978021;28;20041;-65
2022/12/06 07:47:37;;;;;;;16.13;3.30;;;;;;;;;;4978318;28;20140;-65
2022/12/06 07:50:04;;;;;;;23.20;4.70;;;;;;;;;;4973536;28;20025;-64
2022/12/06 07:52:31;;;;;;;22.73;6.43;;;;;;;;;;4979671;28;20034;-67
2022/12/06 07:54:58;;;;;;;24.17;6.22;;;;;;;;;;4973260;28;20053;-64
2022/12/06 07:57:24;;;;;;;21.35;5.43;;;;;;;;;;4979999;28;20071;-64
2022/12/06 07:59:50;;;;;;;25.73;6.18;;;;;;;;;;4978944;28;20072;-64
2022/12/06 08:02:17;;;;;;;18.10;5.25;;;;;;;;;;4974711;28;20451;-65
2022/12/06 08:04:43;;;;;;;17.92;4.88;;;;;;;;;;4978541;28;20025;-65
2022/12/06 08:07:09;;;;;;;18.70;5.53;;;;;;;;;;4975586;28;20088;-65
2022/12/06 08:09:35;;;;;;;17.40;5.35;;;;;;;;;;4980446;28;20570;-67
2022/12/06 08:12:01;;;;;;;21.85;6.22;;;;;;;;;;4975150;28;20297;-66
2022/12/06 08:14:28;;;;;;;22.70;6.60;;;;;;;;;;4980129;28;20047;-66
2022/12/06 08:16:54;;;;;;;15.50;5.43;;;;;;;;;;4975587;28;20590;-65
2022/12/06 08:19:20;;;;;;;17.83;6.07;;;;;;;;;;4975728;28;20509;-66
2022/12/06 08:21:47;;;;;;;21.70;7.57;;;;;;;;;;4981129;28;20092;-66
2022/12/06 08:24:13;;;;;;;20.88;6.53;;;;;;;;;;4972237;28;22254;-65
2022/12/06 08:26:39;;;;;;;19.73;7.75;;;;;;;;;;4980901;28;20065;-67
2022/12/06 08:29:05;;;;;;;20.38;7.88;;;;;;;;;;4973601;28;20386;-64
2022/12/06 08:31:35;;;;;;;23.23;10.48;;;;;;;;;;4980584;28;20377;-64
2022/12/06 08:34:01;;;;;;;31.92;10.63;;;;;;;;;;4974285;28;20391;-64
2022/12/06 08:36:27;;;;;;;;;;;;;;;;;;4978800;28;20053;-65
2022/12/06 08:38:54;;;;;;;23.85;11.38;;;;;;;;;;4976180;28;20405;-65
2022/12/06 08:44:09;;;;;;;27.73;10.35;;;;;;;;;;4973480;28;20137;-66
2022/12/06 08:46:35;;;;;;;24.20;9.63;;;;;;;;;;4975153;28;20030;-66
2022/12/06 08:49:01;;;;;;;26.52;9.38;;;;;;;;;;4973547;28;20033;-65
2022/12/06 08:51:28;;;;;;;19.88;9.18;;;;;;;;;;4980896;28;20713;-66
2022/12/06 08:53:54;;;;;;;24.80;10.85;;;;;;;;;;4975429;28;20057;-66
2022/12/06 08:56:21;;;;;;;24.25;10.43;;;;;;;;;;4978259;28;20046;-66
2022/12/06 08:58:48;;;;;;;23.42;11.00;;;;;;;;;;4975561;28;20116;-66
2022/12/06 09:01:13;;;;;;;;;;;;;;;;;;4975034;28;20153;-66
2022/12/06 09:03:40;;;;;;;25.13;10.55;;;;;;;;;;4979704;28;19928;-66
2022/12/06 09:06:06;;;;;;;;;;;;;;;;;;4973076;28;20136;-65
2022/12/06 09:08:32;;;;;;;20.45;8.60;;;;;;;;;;4978510;28;20222;-66
2022/12/06 09:10:58;;;;;;;19.77;7.45;;;;;;;;;;4976900;28;20026;-66
2022/12/06 09:13:24;;;;;;;24.67;8.07;;;;;;;;;;4975896;28;20168;-66
2022/12/06 09:15:50;;;;;;;21.33;7.88;;;;;;;;;;4976123;28;20069;-65
2022/12/06 09:18:16;;;;;;;29.35;8.07;;;;;;;;;;4972789;28;20037;-67
2022/12/06 09:20:42;;;;;;;18.60;7.60;;;;;;;;;;4980648;28;20386;-66
2022/12/06 09:23:09;;;;;;;28.17;8.98;;;;;;;;;;4976095;28;20191;-66
2022/12/06 09:25:35;;;;;;;28.27;8.45;;;;;;;;;;4978488;28;20033;-66
2022/12/06 09:28:02;;;;;;;22.75;7.45;;;;;;;;;;4973416;28;20032;-66
2022/12/06 09:30:28;;;;;;;23.40;8.15;;;;;;;;;;4977179;28;20037;-66
2022/12/06 09:32:54;;;;;;;;;;;;;;;;;;4976120;28;20038;-67
2022/12/06 09:35:21;;;;;;;19.80;8.00;;;;;;;;;;4978335;28;20437;-66
2022/12/06 09:37:47;;;;;;;26.48;10.07;;;;;;;;;;4976413;28;20036;-66
2022/12/06 09:40:21;;;;;;;23.67;9.13;;;;;;;;;;4973984;28;20732;-66
2022/12/06 09:43:17;;;;;;;23.88;9.02;;;;;;;;;;4987994;28;20177;-66
2022/12/06 09:45:49;;;;;;;20.27;8.15;;;;;;;;;;4918872;28;20384;-66
2022/12/06 09:48:24;;;;;;;24.05;8.80;;;;;;;;;;4914551;28;20110;-65
2022/12/06 09:51:09;;;;;;;19.52;9.18;;;;;;;;;;4916103;28;20122;-65
2022/12/06 09:53:35;;;;;;;19.58;8.02;;;;;;;;;;4915930;28;20086;-65
2022/12/06 09:56:02;;;;;;;;;;;;;;;;;;4899318;28;20599;-65
2022/12/06 09:58:47;;;;;;;19.05;6.70;;;;;;;;;;4916398;28;20380;-65
2022/12/06 10:01:28;;;;;;;20.58;7.35;;;;;;;;;;4918665;28;20224;-66
2022/12/06 10:03:57;;;;;;;17.55;5.60;;;;;;;;;;4918420;28;20052;-66
2022/12/06 10:06:27;;;;;;;19.95;5.05;;;;;;;;;;4904011;28;20465;-65
2022/12/06 10:08:56;;;;;;;15.00;4.85;;;;;;;;;;4923962;28;20081;-66
2022/12/06 10:11:25;;;;;;;20.00;4.63;;;;;;;;;;4926141;28;20339;-67
2022/12/06 10:13:54;;;;;;;16.75;4.80;;;;;;;;;;4922010;28;20450;-67
2022/12/06 10:16:20;;;;;;;19.88;4.65;;;;;;;;;;4926556;28;20183;-67
2022/12/06 10:18:46;;;;;;;;;;;;;;;;;;4906052;28;20545;-65
2022/12/06 10:21:12;;;;;;;18.42;5.07;;;;;;;;;;4922226;28;20510;-65
2022/12/06 10:23:38;;;;;;;;;;;;;;;;;;4980901;28;20026;-67
2022/12/06 10:26:15;;;;;;;18.60;3.83;;;;;;;;;;4974924;28;20504;-65
2022/12/06 10:28:47;;;;;;;13.02;3.70;;;;;;;;;;4981352;28;20030;-68
2022/12/06 10:31:25;;;;;;;13.45;3.95;;;;;;;;;;4974662;28;20022;-65
2022/12/06 10:34:07;;;;;;;14.85;4.20;;;;;;;;;;4980003;28;20112;-65
2022/12/06 10:36:47;;;;;;;14.30;3.95;;;;;;;;;;4981343;28;20124;-67
2022/12/06 10:39:43;;;;;;;19.95;5.43;;;;;;;;;;4978197;28;21915;-66
2022/12/06 10:42:13;;;;;;;17.67;6.47;;;;;;;;;;4915658;28;20496;-66
2022/12/06 10:44:52;;;;;;;19.23;6.35;;;;;;;;;;4904854;28;20027;-66
2022/12/06 10:47:23;;;;;;;17.98;5.65;;;;;;;;;;4917369;28;20050;-66
2022/12/06 10:49:59;;;;;;;19.42;5.03;;;;;;;;;;4918167;28;20628;-66
2022/12/06 10:52:35;;;;;;;15.88;4.70;;;;;;;;;;4920308;28;20046;-66
2022/12/06 10:55:02;;;;;;;15.73;5.15;;;;;;;;;;4912952;28;20058;-66
2022/12/06 10:57:32;;;;;;;15.80;3.92;;;;;;;;;;4914044;28;20062;-66
2022/12/06 11:00:02;;;;;;;17.77;5.45;;;;;;;;;;4912446;28;21014;-67
2022/12/06 11:02:54;;;;;;;13.52;5.32;;;;;;;;;;4918915;28;20043;-66
2022/12/06 11:05:40;;;;;;;17.45;5.10;;;;;;;;;;4912725;28;20378;-67
2022/12/06 11:08:11;;;;;;;14.57;4.03;;;;;;;;;;4900418;28;20110;-66
2022/12/06 11:10:38;;;;;;;18.10;4.22;;;;;;;;;;4916345;28;20329;-69
2022/12/06 11:13:16;;;;;;;17.60;3.45;;;;;;;;;;4911315;28;20284;-70
2022/12/06 11:15:47;;;;;;;13.80;3.65;;;;;;;;;;4899304;28;20069;-70
2022/12/06 11:18:15;;;;;;;15.93;3.17;;;;;;;;;;4936237;28;21246;-69
2022/12/06 11:20:45;;;;;;;14.80;2.85;;;;;;;;;;4978509;28;20046;-69
2022/12/06 11:23:30;;;;;;;13.93;3.85;;;;;;;;;;4973234;28;20064;-69
2022/12/06 11:26:04;;;;;;;19.42;5.10;;;;;;;;;;4970557;28;20033;-69
2022/12/06 11:28:30;;;;;;;19.88;6.25;;;;;;;;;;4974821;28;20460;-69
2022/12/06 11:30:56;;;;;;;16.67;3.50;;;;;;;;;;4975420;28;20057;-69
2022/12/06 11:33:27;;;;;;;12.00;3.22;;;;;;;;;;4978557;28;20034;-69
2022/12/06 11:35:53;;;;;;;18.42;3.63;;;;;;;;;;4976126;28;20030;-69
2022/12/06 11:38:19;;;;;;;20.45;7.82;;;;;;;;;;4974793;28;20041;-69
2022/12/06 11:40:46;;;;;;;22.23;11.23;;;;;;;;;;4976035;28;20116;-68
2022/12/06 11:43:19;;;;;;;28.42;13.85;;;;;;;;;;4970592;28;20038;-68
2022/12/06 11:45:45;;;;;;;20.30;8.23;;;;;;;;;;4977550;28;20030;-68
2022/12/06 11:48:14;;;;;;;22.02;7.88;;;;;;;;;;4974844;28;20068;-68
2022/12/06 11:50:41;;;;;;;16.90;5.20;;;;;;;;;;4977971;28;20609;-68
2022/12/06 11:53:13;;;;;;;15.10;5.25;;;;;;;;;;4977773;28;20109;-67
2022/12/06 11:55:43;;;;;;;14.73;4.97;;;;;;;;;;4979741;28;20053;-68
2022/12/06 11:58:12;;;;;;;21.02;7.00;;;;;;;;;;4976322;28;20034;-68
2022/12/06 12:00:54;;;;;;;19.83;9.52;;;;;;;;;;4978605;28;20030;-68
2022/12/06 12:03:27;;;;;;;22.25;7.47;;;;;;;;;;4977496;28;20115;-70
2022/12/06 12:06:06;;;;;;;27.55;12.52;;;;;;;;;;4977984;28;20054;-70
2022/12/06 12:08:32;;;;;;;34.95;18.95;;;;;;;;;;4979963;28;20030;-69
2022/12/06 12:10:59;;;;;;;27.52;13.45;;;;;;;;;;4976862;28;20048;-70
2022/12/06 12:13:45;;;;;;;23.13;8.93;;;;;;;;;;4980894;28;20040;-69
2022/12/06 12:16:14;;;;;;;16.73;6.80;;;;;;;;;;4975896;28;20121;-69
2022/12/06 12:18:56;;;;;;;16.52;6.20;;;;;;;;;;4976750;28;20030;-70
2022/12/06 12:21:36;;;;;;;20.02;6.43;;;;;;;;;;4980863;28;20034;-71
2022/12/06 12:24:06;;;;;;;15.45;5.22;;;;;;;;;;4974791;28;20292;-69
2022/12/06 12:26:38;;;;;;;15.50;4.70;;;;;;;;;;4980220;28;20139;-69
2022/12/06 12:29:10;;;;;;;16.38;4.53;;;;;;;;;;4974536;28;20779;-69
2022/12/06 12:32:05;;;;;;;20.83;6.50;;;;;;;;;;4980729;28;20491;-69
2022/12/06 12:34:31;;;;;;;18.98;5.53;;;;;;;;;;4931418;28;20154;-69
2022/12/06 12:36:59;;;;;;;16.27;4.25;;;;;;;;;;4914785;28;20500;-69
2022/12/06 12:39:38;;;;;;;15.07;3.55;;;;;;;;;;4932008;28;20039;-69
2022/12/06 12:42:04;;;;;;;15.55;3.35;;;;;;;;;;4929402;28;20684;-70
2022/12/06 12:44:36;;;;;;;14.05;3.05;;;;;;;;;;4933290;28;20465;-70
2022/12/06 12:47:04;;;;;;;13.38;2.85;;;;;;;;;;4930109;28;20037;-70
2022/12/06 12:49:34;;;;;;;19.10;4.50;;;;;;;;;;4929997;28;20039;-68
2022/12/06 12:52:01;;;;;;;17.67;4.20;;;;;;;;;;4916598;28;20054;-70
2022/12/06 12:54:35;;;;;;;12.75;3.28;;;;;;;;;;4935149;28;20631;-71
2022/12/06 12:57:02;;;;;;;18.52;4.15;;;;;;;;;;4918129;28;20129;-68
2022/12/06 12:59:32;;;;;;;15.80;3.67;;;;;;;;;;4935723;28;20067;-71
2022/12/06 13:02:04;;;;;;;11.65;3.28;;;;;;;;;;4933606;28;20650;-68
2022/12/06 13:04:30;;;;;;;11.45;2.83;;;;;;;;;;4936398;28;20054;-70
2022/12/06 13:07:03;;;;;;;16.05;3.42;;;;;;;;;;4929831;28;20027;-70
2022/12/06 13:09:50;;;;;;;13.57;3.85;;;;;;;;;;4932625;28;20486;-70
2022/12/06 13:12:20;;;;;;;15.70;3.50;;;;;;;;;;4974644;28;20673;-70
2022/12/06 13:15:06;;;;;;;14.75;3.40;;;;;;;;;;4976427;28;20576;-70
2022/12/06 13:17:34;;;;;;;15.20;3.30;;;;;;;;;;4975336;28;20381;-70
2022/12/06 13:20:00;;;;;;;12.57;3.67;;;;;;;;;;4972055;28;20033;-70
2022/12/06 13:22:29;;;;;;;14.20;3.88;;;;;;;;;;4975302;28;20038;-70
2022/12/06 13:25:00;;;;;;;14.30;3.65;;;;;;;;;;4975020;28;20046;-70
2022/12/06 13:27:27;;;;;;;18.45;3.30;;;;;;;;;;4975189;28;20034;-70
2022/12/06 13:29:57;;;;;;;13.27;3.38;;;;;;;;;;4977445;28;20214;-70
2022/12/06 13:32:27;;;;;;;16.50;3.80;;;;;;;;;;4977435;28;20087;-69
2022/12/06 13:34:56;;;;;;;14.88;3.53;;;;;;;;;;4975470;28;20361;-69
2022/12/06 13:37:27;;;;;;;13.07;3.00;;;;;;;;;;4976956;28;20044;-69
2022/12/06 13:39:53;;;;;;;14.85;3.80;;;;;;;;;;4976976;28;20018;-69
2022/12/06 13:42:22;;;;;;;14.98;4.03;;;;;;;;;;4974716;28;20368;-69
2022/12/06 13:44:48;;;;;;;12.82;4.85;;;;;;;;;;4972774;28;20459;-69
2022/12/06 13:47:26;;;;;;;15.30;5.68;;;;;;;;;;4972386;28;20575;-70
2022/12/06 13:50:11;;;;;;;13.90;4.63;;;;;;;;;;4975707;28;20844;-69
2022/12/06 13:52:43;;;;;;;16.15;4.28;;;;;;;;;;4974538;28;20092;-70
2022/12/06 13:55:25;;;;;;;14.43;4.93;;;;;;;;;;4971032;28;21026;-69
2022/12/06 13:57:54;;;;;;;17.15;5.85;;;;;;;;;;4973354;28;20037;-70
2022/12/06 14:00:29;;;;;;;13.18;3.53;;;;;;;;;;4974217;28;20488;-70
2022/12/06 14:02:57;;;;;;;12.98;4.75;;;;;;;;;;4973893;28;20069;-70
2022/12/06 14:05:42;;;;;;;15.77;5.05;;;;;;;;;;4977502;28;20484;-69
2022/12/06 14:08:14;;;;;;;14.57;6.30;;;;;;;;;;4974382;28;20034;-70
2022/12/06 14:10:40;;;;;;;13.80;4.10;;;;;;;;;;4993470;28;20034;-70
2022/12/06 14:13:09;;;;;;;13.23;3.72;;;;;;;;;;4971629;28;20558;-70
2022/12/06 14:15:38;;;;;;;14.73;3.70;;;;;;;;;;4977606;28;20034;-70
2022/12/06 14:18:05;;;;;;;14.77;3.20;;;;;;;;;;4974203;28;21471;-69
2022/12/06 14:20:31;;;;;;;14.30;3.03;;;;;;;;;;4979644;28;20029;-71
2022/12/06 14:22:57;;;;;;;14.38;2.92;;;;;;;;;;4973874;28;20108;-69
2022/12/06 14:25:25;;;;;;;12.73;3.03;;;;;;;;;;4978044;28;20041;-69
2022/12/06 14:28:00;;;;;;;13.25;3.53;;;;;;;;;;4979155;28;20057;-69
2022/12/06 14:30:26;;;;;;;13.45;3.28;;;;;;;;;;4981599;28;20045;-70
2022/12/06 14:32:53;;;;;;;14.52;3.20;;;;;;;;;;4977655;28;20271;-70
2022/12/06 14:35:46;;;;;;;13.70;4.13;;;;;;;;;;4977247;28;21052;-69
2022/12/06 14:38:26;;;;;;;15.25;3.28;;;;;;;;;;4969128;28;20264;-69
2022/12/06 14:43:38;;;;;;;14.88;3.40;;;;;;;;;;4975352;28;20096;-69
2022/12/06 14:46:05;;;;;;;12.02;3.25;;;;;;;;;;4973275;28;21298;-69
2022/12/06 14:51:19;;;;;;;13.48;5.47;;;;;;;;;;4979318;28;20104;-71
2022/12/06 14:53:45;;;;;;;15.10;4.13;;;;;;;;;;4979698;28;20029;-69
2022/12/06 14:56:26;;;;;;;12.65;3.95;;;;;;;;;;4976582;28;20073;-68
2022/12/06 14:58:56;;;;;;;13.13;3.70;;;;;;;;;;4979572;28;20034;-68
2022/12/06 15:01:25;;;;;;;11.07;2.97;;;;;;;;;;4988221;28;20123;-69
2022/12/06 15:04:01;;;;;;;11.93;3.13;;;;;;;;;;4981967;28;20057;-69
2022/12/06 15:06:28;;;;;;;12.20;3.67;;;;;;;;;;4980978;28;20295;-69
2022/12/06 15:08:57;;;;;;;15.10;4.53;;;;;;;;;;4975914;28;20025;-70
2022/12/06 15:14:45;;;;;;;12.82;3.80;;;;;;;;;;4980841;28;20104;-69
2022/12/06 15:17:11;;;;;;;15.05;3.58;;;;;;;;;;4976185;28;20041;-69
2022/12/06 15:19:40;;;;;;;19.13;3.58;;;;;;;;;;4980221;28;20457;-69
2022/12/06 15:22:23;;;;;;;13.35;3.72;;;;;;;;;;4975242;28;20036;-70
2022/12/06 15:24:58;;;;;;;13.95;3.65;;;;;;;;;;4976775;28;20022;-71